Flugwetter

[source: ADDS]
METAR
LOWL 252050Z AUTO 07004KT 9999 FEW040 SCT048 M09/M14 Q1023 NOSIG =
TAF
TAF COR LOWL 251813Z 2518/2618 09007KT 9999 FEW035 TXM06/2615Z TNM11/2606Z TEMPO 2518/2618 04004KT BKN035 =